Time;durP1;ratioP1;P1;durP2;ratioP2;P2;SDS_P1;SDS_P2;PMS_P1;PMS_P2;Temp;Humidity;BMP_temperature;BMP_pressure;BME280_temperature;BME280_humidity;BME280_pressure;Samples;Min_cycle;Max_cycle;Signal;HPM_P1;HPM_P2
2023/04/12 00:01:23;;;;;;;8.82;2.28;;;7.40;99.90;;;;;;5071890;28;20051;-70
2023/04/12 00:03:49;;;;;;;6.97;2.30;;;7.40;99.90;;;;;;5072086;28;20036;-69
2023/04/12 00:06:17;;;;;;;11.45;2.35;;;7.40;99.90;;;;;;5071579;28;20040;-69
2023/04/12 00:08:45;;;;;;;8.23;2.10;;;7.40;99.90;;;;;;5071306;28;20047;-68
2023/04/12 00:11:11;;;;;;;9.90;2.28;;;7.40;99.90;;;;;;5071726;28;20045;-68
2023/04/12 00:13:37;;;;;;;4.57;2.25;;;7.40;99.90;;;;;;5053723;28;20081;-68
2023/04/12 00:16:02;;;;;;;9.18;2.53;;;7.30;99.90;;;;;;5071421;28;20044;-70
2023/04/12 00:18:28;;;;;;;6.90;2.55;;;7.40;99.90;;;;;;5071766;28;20072;-68
2023/04/12 00:20:56;;;;;;;8.85;2.90;;;7.40;99.90;;;;;;5053714;28;20055;-69
2023/04/12 00:23:22;;;;;;;5.53;2.30;;;7.40;99.90;;;;;;5071748;28;20076;-68
2023/04/12 00:25:47;;;;;;;9.50;2.83;;;7.40;99.90;;;;;;5071381;28;20106;-70
2023/04/12 00:28:14;;;;;;;6.03;2.58;;;7.40;99.90;;;;;;5053809;28;20075;-70
2023/04/12 00:30:40;;;;;;;14.23;3.33;;;7.40;99.90;;;;;;5071554;28;20523;-70
2023/04/12 00:33:06;;;;;;;13.02;3.03;;;7.40;99.90;;;;;;5053614;28;20044;-70
2023/04/12 00:35:31;;;;;;;9.85;2.30;;;7.40;99.90;;;;;;5053262;28;20041;-69
2023/04/12 00:37:57;;;;;;;8.02;2.55;;;7.40;99.90;;;;;;5071404;28;20036;-69
2023/04/12 00:40:23;;;;;;;8.40;2.75;;;7.50;99.90;;;;;;5071471;28;20044;-68
2023/04/12 00:42:48;;;;;;;9.52;2.63;;;7.50;99.90;;;;;;5071455;28;20059;-68
2023/04/12 00:45:14;;;;;;;8.95;3.45;;;7.50;99.90;;;;;;5053439;28;20551;-68
2023/04/12 00:47:42;;;;;;;6.80;3.30;;;7.50;99.90;;;;;;5053349;28;20040;-68
2023/04/12 00:50:08;;;;;;;10.25;2.80;;;7.50;99.90;;;;;;5071431;28;20093;-68
2023/04/12 00:52:34;;;;;;;10.20;2.80;;;7.50;99.90;;;;;;5071421;28;20094;-69
2023/04/12 00:55:04;;;;;;;6.95;2.60;;;7.60;99.90;;;;;;5053511;28;20036;-69
2023/04/12 00:57:37;;;;;;;7.68;2.38;;;7.60;99.90;;;;;;5071053;28;20573;-69
2023/04/12 01:00:07;;;;;;;8.80;2.80;;;7.60;99.90;;;;;;5071384;28;20124;-69
2023/04/12 01:02:33;;;;;;;9.15;2.50;;;7.60;99.90;;;;;;5071322;28;20446;-68
2023/04/12 01:04:59;;;;;;;9.23;2.45;;;7.70;99.90;;;;;;5053092;28;20059;-68
2023/04/12 01:07:46;;;;;;;13.55;3.45;;;7.70;99.90;;;;;;5071061;28;20115;-69
2023/04/12 01:10:30;;;;;;;9.57;3.03;;;7.70;99.90;;;;;;5053087;28;20086;-69
2023/04/12 01:13:13;;;;;;;9.73;2.40;;;7.70;99.90;;;;;;5053315;28;20094;-68
2023/04/12 01:15:50;;;;;;;12.57;4.00;;;7.70;99.90;;;;;;5053251;28;20060;-69
2023/04/12 01:18:20;;;;;;;7.63;2.92;;;7.70;99.90;;;;;;5071046;28;20115;-69
2023/04/12 01:21:08;;;;;;;8.55;3.15;;;7.80;99.90;;;;;;5072484;28;20047;-69
2023/04/12 01:23:58;;;;;;;14.88;4.57;;;7.80;99.90;;;;;;5056868;28;20044;-69
2023/04/12 01:26:33;;;;;;;9.85;2.38;;;7.80;99.90;;;;;;5074533;28;20416;-68
2023/04/12 01:29:03;;;;;;;8.32;3.47;;;7.80;99.90;;;;;;5075257;28;20100;-70
2023/04/12 01:31:31;;;;;;;7.90;3.30;;;7.80;99.90;;;;;;5074734;28;20055;-69
2023/04/12 01:33:57;;;;;;;11.02;2.95;;;7.80;99.90;;;;;;5074759;28;20047;-69
2023/04/12 01:36:26;;;;;;;13.00;2.58;;;7.80;99.90;;;;;;5056382;28;20045;-69
2023/04/12 01:38:53;;;;;;;9.70;3.72;;;7.80;99.90;;;;;;5056644;28;20043;-69
2023/04/12 01:41:18;;;;;;;12.93;3.40;;;7.90;99.90;;;;;;5056467;28;20415;-69
2023/04/12 01:43:45;;;;;;;7.32;2.97;;;7.80;99.90;;;;;;5056828;28;20055;-69
2023/04/12 01:46:15;;;;;;;10.73;3.22;;;7.80;99.90;;;;;;5056046;28;20052;-69
2023/04/12 01:48:51;;;;;;;8.60;2.65;;;7.90;99.90;;;;;;5074562;28;20044;-69
2023/04/12 01:51:41;;;;;;;10.85;3.05;;;7.80;99.90;;;;;;5074411;28;20412;-68
2023/04/12 01:54:16;;;;;;;9.27;2.85;;;7.80;99.90;;;;;;5056244;28;20062;-69
2023/04/12 01:56:45;;;;;;;15.63;3.25;;;7.80;99.90;;;;;;5074236;28;20094;-68
2023/04/12 01:59:14;;;;;;;7.15;2.67;;;7.80;99.90;;;;;;5056332;28;20052;-69
2023/04/12 02:01:40;;;;;;;7.53;3.03;;;7.80;99.90;;;;;;5074121;28;20032;-69
2023/04/12 02:04:08;;;;;;;8.07;2.88;;;7.90;99.90;;;;;;5056169;28;20048;-69
2023/04/12 02:06:34;;;;;;;7.30;3.50;;;7.90;99.90;;;;;;5056131;28;20044;-68
2023/04/12 02:09:01;;;;;;;10.48;3.40;;;7.90;99.90;;;;;;5074206;28;20502;-68
2023/04/12 02:11:27;;;;;;;10.30;3.00;;;7.90;99.90;;;;;;5056003;28;20044;-69
2023/04/12 02:13:53;;;;;;;8.57;3.45;;;7.90;99.90;;;;;;5055958;28;20518;-69
2023/04/12 02:16:19;;;;;;;8.27;3.30;;;7.90;99.90;;;;;;5055594;28;20036;-69
2023/04/12 02:18:46;;;;;;;10.38;3.08;;;7.90;99.90;;;;;;5073775;28;20037;-69
2023/04/12 02:21:11;;;;;;;9.57;2.90;;;7.90;99.90;;;;;;5055742;28;20500;-69
2023/04/12 02:23:37;;;;;;;9.65;2.78;;;8.00;99.90;;;;;;5073851;28;20041;-68
2023/04/12 02:26:03;;;;;;;10.68;2.75;;;8.00;99.90;;;;;;5055503;28;20518;-69
2023/04/12 02:28:28;;;;;;;6.97;2.78;;;8.00;99.90;;;;;;5055689;28;20114;-69
2023/04/12 02:30:54;;;;;;;10.60;3.53;;;8.10;99.90;;;;;;5073300;28;20052;-68
2023/04/12 02:33:23;;;;;;;19.48;3.78;;;8.10;99.90;;;;;;5055556;28;20048;-69
2023/04/12 02:35:50;;;;;;;12.73;3.80;;;8.10;99.90;;;;;;5055425;28;20048;-68
2023/04/12 02:38:15;;;;;;;10.55;3.40;;;8.10;99.90;;;;;;5055500;28;20032;-69
2023/04/12 02:40:41;;;;;;;9.77;3.25;;;8.10;99.90;;;;;;5073418;28;20044;-69
2023/04/12 02:43:07;;;;;;;10.40;3.35;;;8.10;99.90;;;;;;5055622;28;20048;-68
2023/04/12 02:45:35;;;;;;;16.77;4.43;;;8.10;99.90;;;;;;5073100;28;20048;-69
2023/04/12 02:48:01;;;;;;;16.55;3.83;;;8.10;99.90;;;;;;5055071;28;20045;-68
2023/04/12 02:50:26;;;;;;;11.73;3.65;;;8.00;99.90;;;;;;5073379;28;20033;-68
2023/04/12 02:52:52;;;;;;;12.60;4.28;;;8.10;99.90;;;;;;5073348;28;20028;-68
2023/04/12 02:55:17;;;;;;;8.55;3.53;;;8.10;99.90;;;;;;5055055;28;20040;-69
2023/04/12 02:57:44;;;;;;;9.30;2.83;;;8.10;99.90;;;;;;5073069;28;20064;-68
2023/04/12 03:00:11;;;;;;;9.90;3.10;;;8.10;99.90;;;;;;5073106;28;20415;-68
2023/04/12 03:02:37;;;;;;;8.93;3.10;;;8.10;99.90;;;;;;5054718;28;20098;-68
2023/04/12 03:05:03;;;;;;;5.22;2.53;;;8.20;99.90;;;;;;5073068;28;20044;-70
2023/04/12 03:07:29;;;;;;;8.70;2.83;;;8.20;99.90;;;;;;5054786;28;20076;-69
2023/04/12 03:09:54;;;;;;;8.63;3.38;;;8.20;99.90;;;;;;5054976;28;20479;-70
2023/04/12 03:12:20;;;;;;;7.82;2.70;;;8.20;99.90;;;;;;5072838;28;20456;-69
2023/04/12 03:14:45;;;;;;;8.40;2.72;;;8.20;99.90;;;;;;5072664;28;20036;-69
2023/04/12 03:17:11;;;;;;;5.53;2.42;;;8.20;99.90;;;;;;5054503;28;20076;-68
2023/04/12 03:19:36;;;;;;;6.90;2.78;;;8.30;99.90;;;;;;5072846;28;20078;-68
2023/04/12 03:22:03;;;;;;;6.95;2.40;;;8.30;99.90;;;;;;5072739;28;20503;-68
2023/04/12 03:24:32;;;;;;;7.30;2.80;;;8.30;99.90;;;;;;5072512;28;20075;-68
2023/04/12 03:26:58;;;;;;;8.82;2.60;;;8.30;99.90;;;;;;5054409;28;20119;-69
2023/04/12 03:29:24;;;;;;;5.15;2.55;;;8.30;99.90;;;;;;5054519;28;20169;-71
2023/04/12 03:31:49;;;;;;;9.93;1.95;;;8.30;99.90;;;;;;5072372;28;20041;-70
2023/04/12 03:34:15;;;;;;;5.93;1.95;;;8.30;99.90;;;;;;5072435;28;20525;-69
2023/04/12 03:36:41;;;;;;;6.45;1.95;;;8.30;99.90;;;;;;5054382;28;20041;-69
2023/04/12 03:39:06;;;;;;;8.02;2.55;;;8.30;99.90;;;;;;5072270;28;20570;-69
2023/04/12 03:41:32;;;;;;;4.63;1.83;;;8.30;99.90;;;;;;5072240;28;20097;-68
2023/04/12 03:43:58;;;;;;;3.53;1.70;;;8.40;99.90;;;;;;5053724;28;20403;-69
2023/04/12 03:46:23;;;;;;;6.25;1.90;;;8.40;99.90;;;;;;5053911;28;20036;-69
2023/04/12 03:48:50;;;;;;;5.80;1.92;;;8.30;99.90;;;;;;5054305;28;20039;-69
2023/04/12 03:51:16;;;;;;;4.68;1.70;;;8.40;99.90;;;;;;5071955;28;20136;-69
2023/04/12 03:53:42;;;;;;;5.25;2.13;;;8.40;99.90;;;;;;5054367;28;20474;-69
2023/04/12 03:56:08;;;;;;;8.18;2.28;;;8.30;99.90;;;;;;5053825;28;20032;-69
2023/04/12 03:58:34;;;;;;;4.97;2.17;;;8.30;99.90;;;;;;5072019;28;20058;-69
2023/04/12 04:01:05;;;;;;;4.82;2.17;;;8.30;99.90;;;;;;5054170;28;20044;-69
2023/04/12 04:03:33;;;;;;;8.43;2.40;;;8.30;99.90;;;;;;5053931;28;20077;-69
2023/04/12 04:06:02;;;;;;;9.30;2.50;;;8.30;99.90;;;;;;5071744;28;20119;-69
2023/04/12 04:08:28;;;;;;;6.05;2.55;;;8.30;99.90;;;;;;5071902;28;20032;-69
2023/04/12 04:10:55;;;;;;;6.43;2.50;;;8.30;99.90;;;;;;5071785;28;20137;-69
2023/04/12 04:13:21;;;;;;;10.38;2.90;;;8.30;99.90;;;;;;5071655;28;20048;-69
2023/04/12 04:15:57;;;;;;;7.47;2.13;;;8.30;99.90;;;;;;5053531;28;20044;-69
2023/04/12 04:18:23;;;;;;;5.00;2.35;;;8.20;99.90;;;;;;5071849;28;20111;-69
2023/04/12 04:20:48;;;;;;;5.40;2.30;;;8.20;99.90;;;;;;5053748;28;20123;-69
2023/04/12 04:23:14;;;;;;;10.10;2.15;;;8.20;99.90;;;;;;5053926;28;20514;-69
2023/04/12 04:25:40;;;;;;;7.65;3.10;;;8.20;99.90;;;;;;5071462;28;20051;-69
2023/04/12 04:28:06;;;;;;;8.20;2.40;;;8.20;99.90;;;;;;5071482;28;20037;-69
2023/04/12 04:30:37;;;;;;;9.27;2.90;;;8.20;99.90;;;;;;5071542;28;20542;-69
2023/04/12 04:33:03;;;;;;;7.93;2.92;;;8.20;99.90;;;;;;5053602;28;20044;-69
2023/04/12 04:35:30;;;;;;;5.68;2.85;;;8.10;99.90;;;;;;5071479;28;20454;-69
2023/04/12 04:37:56;;;;;;;7.57;3.20;;;8.10;99.90;;;;;;5071494;28;20506;-69
2023/04/12 04:40:23;;;;;;;8.77;3.20;;;8.10;99.90;;;;;;5053408;28;20086;-69
2023/04/12 04:42:56;;;;;;;8.40;3.13;;;8.10;99.90;;;;;;5071440;28;20040;-69
2023/04/12 04:45:26;;;;;;;8.60;2.88;;;8.10;99.90;;;;;;5071400;28;20071;-68
2023/04/12 04:47:52;;;;;;;10.77;4.13;;;8.10;99.90;;;;;;5053320;28;20495;-69
2023/04/12 04:50:20;;;;;;;11.23;3.30;;;8.00;99.90;;;;;;5071334;28;20063;-71
2023/04/12 04:52:47;;;;;;;9.95;3.40;;;8.00;99.90;;;;;;5071381;28;20068;-71
2023/04/12 04:55:13;;;;;;;6.03;3.40;;;8.00;99.90;;;;;;5072921;28;20043;-69
2023/04/12 04:57:39;;;;;;;10.63;4.00;;;8.00;99.90;;;;;;5075528;28;20032;-69
2023/04/12 05:00:15;;;;;;;9.35;3.33;;;8.00;99.90;;;;;;5075539;28;20044;-69
2023/04/12 05:02:44;;;;;;;8.32;4.05;;;8.00;99.90;;;;;;5075422;28;20049;-69
2023/04/12 05:05:13;;;;;;;9.60;3.75;;;7.90;99.90;;;;;;5057124;28;20123;-69
2023/04/12 05:07:39;;;;;;;8.55;4.18;;;7.90;99.90;;;;;;5057097;28;20384;-69
2023/04/12 05:10:05;;;;;;;9.23;3.67;;;7.90;99.90;;;;;;5057329;28;20044;-69
2023/04/12 05:12:31;;;;;;;10.02;3.72;;;7.90;99.90;;;;;;5057009;28;20052;-69
2023/04/12 05:14:57;;;;;;;10.88;3.40;;;7.90;99.90;;;;;;5074798;28;20037;-69
2023/04/12 05:17:22;;;;;;;9.43;4.30;;;7.90;99.90;;;;;;5056883;28;20036;-71
2023/04/12 05:19:48;;;;;;;10.23;3.10;;;7.90;99.90;;;;;;5075016;28;20044;-69
2023/04/12 05:22:19;;;;;;;7.97;3.10;;;7.90;99.90;;;;;;5074905;28;20045;-71
2023/04/12 05:24:44;;;;;;;7.93;2.80;;;7.90;99.90;;;;;;5074839;28;20038;-72
2023/04/12 05:27:10;;;;;;;7.30;3.10;;;7.90;99.90;;;;;;5056609;28;20036;-72
2023/04/12 05:29:35;;;;;;;10.32;3.15;;;7.90;99.90;;;;;;5056978;28;20044;-71
2023/04/12 05:32:01;;;;;;;8.52;2.97;;;7.90;99.90;;;;;;5074692;28;20591;-71
2023/04/12 05:34:27;;;;;;;6.70;2.67;;;7.90;99.90;;;;;;5074579;28;20043;-72
2023/04/12 05:36:52;;;;;;;12.35;3.40;;;7.90;99.90;;;;;;5074293;28;20033;-71
2023/04/12 05:39:18;;;;;;;4.75;2.75;;;7.90;99.90;;;;;;5056723;28;20068;-70
2023/04/12 05:41:43;;;;;;;5.97;2.97;;;7.90;99.90;;;;;;5056876;28;20047;-70
2023/04/12 05:44:09;;;;;;;19.48;3.85;;;7.90;99.90;;;;;;5074450;28;20037;-69
2023/04/12 05:46:35;;;;;;;5.93;2.30;;;7.90;99.90;;;;;;5074120;28;20090;-71
2023/04/12 05:49:00;;;;;;;7.72;2.50;;;7.90;99.90;;;;;;5056483;28;20048;-71
2023/04/12 05:51:26;;;;;;;6.72;2.20;;;7.90;99.90;;;;;;5068903;28;20071;-72
2023/04/12 05:53:51;;;;;;;7.70;2.78;;;7.90;99.90;;;;;;5073349;28;20098;-72
2023/04/12 05:56:17;;;;;;;6.88;2.55;;;7.90;99.90;;;;;;5067648;28;20036;-72
2023/04/12 05:58:42;;;;;;;6.50;2.63;;;7.90;99.90;;;;;;5062628;28;20041;-71
2023/04/12 06:01:08;;;;;;;8.68;2.78;;;7.90;99.90;;;;;;5074186;28;20040;-71
2023/04/12 06:03:33;;;;;;;5.55;2.40;;;7.90;99.90;;;;;;5074161;28;20028;-71
2023/04/12 06:06:01;;;;;;;4.45;2.10;;;7.90;99.90;;;;;;5055089;28;20090;-71
2023/04/12 06:08:28;;;;;;;4.97;2.35;;;7.90;99.90;;;;;;5055930;28;20492;-71
2023/04/12 06:10:54;;;;;;;7.20;2.35;;;7.90;99.90;;;;;;5056003;28;20040;-71
2023/04/12 06:13:20;;;;;;;7.30;3.05;;;7.90;99.90;;;;;;5073877;28;20082;-71
2023/04/12 06:15:45;;;;;;;8.93;2.55;;;7.90;99.90;;;;;;5073694;28;20389;-71
2023/04/12 06:18:11;;;;;;;5.35;2.65;;;8.00;99.90;;;;;;5055816;28;20047;-70
2023/04/12 06:20:40;;;;;;;5.03;2.88;;;8.00;99.90;;;;;;5073631;28;20044;-71
2023/04/12 06:23:06;;;;;;;6.75;2.50;;;7.90;99.90;;;;;;5055803;28;20043;-71
2023/04/12 06:25:32;;;;;;;6.07;3.00;;;8.00;99.90;;;;;;5073582;28;20041;-71
2023/04/12 06:27:58;;;;;;;6.75;2.35;;;8.00;99.90;;;;;;5055557;28;20082;-70
2023/04/12 06:30:23;;;;;;;6.95;3.10;;;8.00;99.90;;;;;;5073655;28;20045;-71
2023/04/12 06:32:49;;;;;;;10.77;3.03;;;7.90;99.90;;;;;;5073601;28;20179;-70
2023/04/12 06:35:15;;;;;;;6.15;2.60;;;7.90;99.90;;;;;;5073240;28;20074;-70
2023/04/12 06:37:41;;;;;;;6.65;2.72;;;8.00;99.90;;;;;;5055421;28;20078;-70
2023/04/12 06:40:07;;;;;;;7.35;2.42;;;8.00;99.90;;;;;;5073607;28;20036;-71
2023/04/12 06:42:33;;;;;;;4.70;1.98;;;8.00;99.90;;;;;;5073349;28;20400;-70
2023/04/12 06:44:58;;;;;;;6.93;2.53;;;8.00;99.90;;;;;;5073256;28;20045;-70
2023/04/12 06:47:24;;;;;;;7.20;2.60;;;8.00;99.90;;;;;;5072954;28;20041;-70
2023/04/12 06:49:54;;;;;;;8.85;2.88;;;8.00;99.90;;;;;;5055573;28;20044;-70
2023/04/12 06:52:25;;;;;;;4.47;2.42;;;8.00;99.90;;;;;;5054533;28;20036;-71
2023/04/12 06:54:51;;;;;;;7.57;2.67;;;8.00;99.90;;;;;;5072732;28;20036;-70
2023/04/12 06:57:17;;;;;;;7.78;2.45;;;8.00;99.90;;;;;;5072549;28;20037;-70
2023/04/12 06:59:43;;;;;;;6.65;2.70;;;8.00;99.90;;;;;;5054780;28;20123;-70
2023/04/12 07:02:08;;;;;;;5.53;2.85;;;7.90;99.90;;;;;;5072981;28;20098;-71
2023/04/12 07:04:34;;;;;;;293.85;209.50;;;8.00;99.90;;;;;;5054974;28;20048;-74
2023/04/12 07:07:00;;;;;;;295.88;186.65;;;8.00;99.90;;;;;;5055092;28;20044;-73
2023/04/12 07:09:25;;;;;;;74.18;41.63;;;8.10;99.90;;;;;;5054878;28;20048;-71
2023/04/12 07:11:51;;;;;;;7.28;3.45;;;8.20;99.90;;;;;;5054949;28;20119;-71
2023/04/12 07:14:17;;;;;;;5.22;2.42;;;8.10;99.90;;;;;;5055076;28;20044;-72
2023/04/12 07:16:42;;;;;;;6.40;2.63;;;8.10;99.90;;;;;;5054696;28;20535;-72
2023/04/12 07:19:08;;;;;;;7.55;2.72;;;8.10;99.90;;;;;;5054731;28;20484;-72
2023/04/12 07:21:33;;;;;;;6.82;3.05;;;8.10;99.90;;;;;;5072564;28;20086;-73
2023/04/12 07:24:00;;;;;;;8.13;2.78;;;8.10;99.90;;;;;;5072562;28;20036;-71
2023/04/12 07:26:26;;;;;;;4.90;2.38;;;8.10;99.90;;;;;;5072187;28;20512;-73
2023/04/12 07:28:51;;;;;;;4.78;2.72;;;8.10;99.90;;;;;;5072533;28;20056;-73
2023/04/12 07:31:17;;;;;;;9.77;2.78;;;8.10;99.90;;;;;;5054406;28;20045;-74
2023/04/12 07:33:43;;;;;;;10.18;2.83;;;8.10;99.90;;;;;;5072606;28;20036;-74
2023/04/12 07:36:09;;;;;;;9.23;2.80;;;8.10;99.90;;;;;;5072342;28;20075;-73
2023/04/12 07:38:35;;;;;;;4.95;2.22;;;8.10;99.90;;;;;;5054450;28;20040;-74
2023/04/12 07:41:00;;;;;;;5.68;2.65;;;8.10;99.90;;;;;;5054267;28;20043;-71
2023/04/12 07:43:26;;;;;;;9.43;2.75;;;8.10;99.90;;;;;;5072229;28;20408;-71
2023/04/12 07:45:54;;;;;;;6.93;2.70;;;8.10;99.90;;;;;;5071910;28;20119;-72
2023/04/12 07:48:20;;;;;;;4.72;2.65;;;8.10;99.90;;;;;;5054357;28;20040;-71
2023/04/12 07:50:46;;;;;;;6.07;3.05;;;8.10;99.90;;;;;;5072556;28;20570;-68
2023/04/12 07:53:25;;;;;;;5.90;2.53;;;8.20;99.90;;;;;;5072080;28;20062;-68
2023/04/12 07:55:51;;;;;;;8.60;2.72;;;8.20;99.90;;;;;;5070647;28;20033;-69
2023/04/12 07:58:18;;;;;;;6.68;3.10;;;8.30;99.90;;;;;;5071903;28;20029;-68
2023/04/12 08:00:44;;;;;;;6.68;3.28;;;8.30;99.90;;;;;;5072265;28;20032;-68
2023/04/12 08:03:12;;;;;;;4.82;2.70;;;8.30;99.90;;;;;;5071863;28;20412;-68
2023/04/12 08:05:38;;;;;;;10.05;3.88;;;8.30;99.90;;;;;;5071794;28;20107;-68
2023/04/12 08:08:03;;;;;;;8.07;3.53;;;8.40;99.90;;;;;;5071864;28;20710;-68
2023/04/12 08:10:30;;;;;;;5.40;3.03;;;8.40;99.90;;;;;;5071814;28;20040;-68
2023/04/12 08:12:55;;;;;;;5.43;2.75;;;8.50;99.90;;;;;;5071792;28;20387;-68
2023/04/12 08:15:21;;;;;;;5.40;3.53;;;8.50;99.90;;;;;;5071171;28;20101;-67
2023/04/12 08:17:47;;;;;;;553.88;354.02;;;8.50;99.90;;;;;;5053731;28;20047;-68
2023/04/12 08:20:14;;;;;;;548.20;380.52;;;8.60;99.90;;;;;;5071867;28;20070;-68
2023/04/12 08:22:43;;;;;;;499.83;312.48;;;8.70;99.90;;;;;;5071823;28;20045;-68
2023/04/12 08:25:09;;;;;;;11.27;6.22;;;8.80;99.90;;;;;;5071182;28;20507;-68
2023/04/12 08:27:35;;;;;;;6.22;3.78;;;8.70;99.90;;;;;;5071372;28;20123;-68
2023/04/12 08:30:02;;;;;;;5.93;3.35;;;8.80;99.90;;;;;;5071221;28;20068;-75
2023/04/12 08:32:27;;;;;;;6.00;3.00;;;8.70;99.90;;;;;;5053842;28;20041;-71
2023/04/12 08:34:54;;;;;;;4.38;3.20;;;8.70;99.90;;;;;;5071568;28;20043;-71
2023/04/12 08:37:19;;;;;;;5.60;2.80;;;8.60;99.90;;;;;;5053729;28;20051;-71
2023/04/12 08:39:45;;;;;;;6.95;3.35;;;8.60;99.90;;;;;;5053567;28;20107;-72
2023/04/12 08:42:13;;;;;;;8.85;2.75;;;8.60;99.90;;;;;;5053532;28;20070;-71
2023/04/12 08:44:39;;;;;;;6.55;3.90;;;8.50;99.90;;;;;;5053438;28;20055;-72
2023/04/12 08:47:06;;;;;;;4.65;3.03;;;8.50;99.90;;;;;;5071313;28;20037;-72
2023/04/12 08:49:33;;;;;;;5.60;3.42;;;8.50;99.90;;;;;;5053416;28;20048;-73
2023/04/12 08:52:04;;;;;;;4.20;2.40;;;8.60;99.90;;;;;;5071522;28;20042;-71
2023/04/12 08:54:31;;;;;;;6.13;3.25;;;8.60;99.90;;;;;;5053209;28;20041;-71
2023/04/12 08:57:00;;;;;;;3.88;2.90;;;8.60;99.90;;;;;;5053204;28;20629;-71
2023/04/12 08:59:27;;;;;;;6.68;3.33;;;8.60;99.90;;;;;;5053701;28;20438;-72
2023/04/12 09:01:53;;;;;;;6.75;3.30;;;8.60;99.90;;;;;;5071329;28;20072;-71
2023/04/12 09:04:19;;;;;;;654.00;468.02;;;8.60;99.90;;;;;;5053392;28;20172;-71
2023/04/12 09:06:45;;;;;;;321.25;212.35;;;8.70;99.90;;;;;;5071061;28;20115;-72
2023/04/12 09:09:10;;;;;;;380.35;232.43;;;8.70;99.90;;;;;;5053127;28;20040;-72
2023/04/12 09:11:36;;;;;;;12.85;7.47;;;8.90;99.90;;;;;;5071347;28;20040;-72
2023/04/12 09:14:01;;;;;;;6.00;3.95;;;8.70;99.90;;;;;;5053221;28;20439;-72
2023/04/12 09:16:38;;;;;;;4.00;3.30;;;8.70;99.90;;;;;;5071020;28;20132;-72
2023/04/12 09:19:04;;;;;;;10.10;4.00;;;8.70;99.90;;;;;;5053533;28;20492;-72
2023/04/12 09:21:33;;;;;;;5.38;3.97;;;8.70;99.90;;;;;;5053242;28;20040;-72
2023/04/12 09:24:10;;;;;;;5.10;3.83;;;8.70;99.90;;;;;;5067859;28;20040;-72
2023/04/12 09:26:36;;;;;;;7.90;4.10;;;8.70;99.90;;;;;;5068486;28;20519;-77
2023/04/12 09:29:02;;;;;;;8.05;5.32;;;8.90;99.90;;;;;;5052901;28;20040;-79
2023/04/12 09:31:28;;;;;;;7.35;5.03;;;9.00;99.90;;;;;;5058788;28;20044;-79
2023/04/12 09:34:08;;;;;;;5.38;4.22;;;9.20;99.90;;;;;;5053517;28;20409;-76
2023/04/12 09:36:38;;;;;;;5.75;4.07;;;9.20;99.90;;;;;;5033135;28;20029;-77
2023/04/12 09:39:04;;;;;;;5.03;4.07;;;9.30;99.90;;;;;;5033228;28;20473;-77
2023/04/12 09:41:31;;;;;;;7.72;4.60;;;9.40;99.90;;;;;;5046617;28;20048;-77
2023/04/12 09:44:01;;;;;;;5.35;4.85;;;9.40;99.90;;;;;;5056543;28;20098;-76
2023/04/12 09:46:26;;;;;;;5.38;4.68;;;9.50;99.90;;;;;;5055788;28;20068;-75
2023/04/12 09:48:54;;;;;;;6.25;4.80;;;9.60;99.90;;;;;;5056466;28;20141;-74
2023/04/12 09:51:27;;;;;;;7.28;4.55;;;9.70;99.90;;;;;;5071841;28;20063;-78
2023/04/12 09:53:55;;;;;;;;;;;9.70;99.90;;;;;;5057151;28;20040;-71
2023/04/12 09:56:21;;;;;;;6.15;4.13;;;9.70;99.90;;;;;;5073149;28;19997;-71
2023/04/12 09:58:51;;;;;;;7.50;4.70;;;9.70;99.90;;;;;;5073907;28;20036;-72
2023/04/12 10:01:17;;;;;;;5.85;4.28;;;9.60;99.90;;;;;;5072864;28;20048;-71
2023/04/12 10:03:43;;;;;;;5.78;4.07;;;9.50;99.90;;;;;;5071827;28;20086;-71
2023/04/12 10:06:10;;;;;;;6.70;4.97;;;9.50;99.90;;;;;;5072540;28;20481;-72
2023/04/12 10:08:37;;;;;;;6.53;5.20;;;9.60;99.90;;;;;;5073749;28;20059;-69
2023/04/12 10:11:03;;;;;;;8.15;5.57;;;9.70;99.90;;;;;;5073699;28;20036;-69
2023/04/12 10:13:31;;;;;;;7.20;5.82;;;10.00;99.90;;;;;;5073224;28;20039;-68
2023/04/12 10:15:59;;;;;;;5.90;5.18;;;10.20;99.90;;;;;;5073479;28;20032;-68
2023/04/12 10:18:26;;;;;;;8.65;5.75;;;10.30;99.90;;;;;;5073918;28;20044;-69
2023/04/12 10:20:51;;;;;;;6.90;5.22;;;10.50;99.90;;;;;;5073886;28;20044;-69
2023/04/12 10:23:17;;;;;;;7.65;5.93;;;10.70;99.90;;;;;;5073882;28;20510;-74
2023/04/12 10:25:45;;;;;;;7.43;5.38;;;10.90;99.90;;;;;;5072396;28;20044;-70
2023/04/12 10:28:20;;;;;;;8.75;6.22;;;10.90;99.90;;;;;;5073731;28;20066;-71
2023/04/12 10:30:50;;;;;;;7.95;5.95;;;11.00;99.90;;;;;;5073454;28;20488;-71
2023/04/12 10:33:18;;;;;;;8.15;5.60;;;11.10;99.90;;;;;;5073455;28;20085;-71
2023/04/12 10:35:52;;;;;;;7.10;5.05;;;11.20;99.90;;;;;;5073077;28;20080;-71
2023/04/12 10:38:18;;;;;;;7.32;5.13;;;11.30;99.90;;;;;;5073483;28;20036;-70
2023/04/12 10:41:05;;;;;;;5.78;5.03;;;11.50;99.90;;;;;;5073332;28;20044;-70
2023/04/12 10:43:31;;;;;;;6.40;4.80;;;11.60;99.90;;;;;;5073491;28;20040;-70
2023/04/12 10:46:02;;;;;;;6.68;4.95;;;11.80;99.90;;;;;;5072935;28;20041;-71
2023/04/12 10:48:38;;;;;;;9.32;4.63;;;11.80;99.90;;;;;;5073112;28;20044;-70
2023/04/12 10:51:14;;;;;;;7.10;5.55;;;11.90;99.90;;;;;;5071897;28;20085;-70
2023/04/12 10:53:40;;;;;;;8.88;4.82;;;12.20;99.90;;;;;;5072265;28;20064;-70
2023/04/12 10:56:33;;;;;;;10.38;4.38;;;12.30;99.90;;;;;;5072768;28;20075;-69
2023/04/12 10:59:01;;;;;;;231.35;138.50;;;12.40;99.90;;;;;;5073066;28;20036;-71
2023/04/12 11:01:27;;;;;;;342.92;216.57;;;12.60;99.90;;;;;;5071652;28;20064;-69
2023/04/12 11:04:16;;;;;;;59.20;35.70;;;12.60;99.90;;;;;;5072638;28;20097;-70
2023/04/12 11:06:46;;;;;;;18.00;9.82;;;12.70;99.90;;;;;;5071304;28;20102;-69
2023/04/12 11:09:26;;;;;;;8.18;5.20;;;12.70;99.90;;;;;;5071414;28;20515;-70
2023/04/12 11:12:04;;;;;;;9.07;4.65;;;12.70;99.90;;;;;;5072681;28;20415;-70
2023/04/12 11:14:49;;;;;;;7.50;4.50;;;12.70;99.90;;;;;;5072797;28;20150;-69
2023/04/12 11:17:15;;;;;;;8.65;4.25;;;12.60;99.90;;;;;;5072558;28;20484;-77
2023/04/12 11:19:49;;;;;;;6.18;3.63;;;12.50;99.90;;;;;;5071378;28;20070;-74
2023/04/12 11:22:16;;;;;;;9.27;4.38;;;12.40;99.90;;;;;;5072725;28;20112;-73
2023/04/12 11:24:48;;;;;;;8.27;4.05;;;12.30;99.90;;;;;;5071282;28;20044;-73
2023/04/12 11:27:17;;;;;;;9.88;4.80;;;12.40;99.90;;;;;;5071060;28;20040;-73
2023/04/12 11:29:43;;;;;;;8.68;3.95;;;12.40;99.90;;;;;;5071473;28;20388;-72
2023/04/12 11:32:13;;;;;;;6.60;3.75;;;12.30;99.90;;;;;;5071485;28;20045;-73
2023/04/12 11:34:40;;;;;;;11.88;4.43;;;12.30;99.90;;;;;;5072346;28;20036;-73
2023/04/12 11:37:09;;;;;;;9.30;3.78;;;12.20;99.90;;;;;;5054191;28;20040;-72
2023/04/12 11:39:43;;;;;;;10.02;4.07;;;12.20;99.90;;;;;;5054465;28;20036;-72
2023/04/12 11:42:14;;;;;;;11.07;4.20;;;12.20;99.90;;;;;;5071105;28;20046;-73
2023/04/12 11:44:41;;;;;;;13.40;5.15;;;12.20;99.90;;;;;;5071124;28;20471;-73
2023/04/12 11:47:16;;;;;;;185.70;118.93;;;12.20;99.90;;;;;;5070636;28;20040;-73
2023/04/12 11:49:52;;;;;;;25.92;16.75;;;12.30;99.90;;;;;;5070822;28;20131;-73
2023/04/12 11:52:20;;;;;;;109.07;62.88;;;12.40;99.90;;;;;;5054537;28;20127;-72
2023/04/12 11:54:48;;;;;;;10.73;4.88;;;12.70;99.90;;;;;;5072137;28;20058;-73
2023/04/12 11:57:15;;;;;;;10.55;4.13;;;12.80;99.90;;;;;;5053997;28;20246;-73
2023/04/12 11:59:45;;;;;;;14.75;4.38;;;12.90;99.90;;;;;;5070775;28;20043;-72
2023/04/12 12:02:13;;;;;;;8.55;3.60;;;13.00;99.90;;;;;;5070686;28;20037;-73
2023/04/12 12:04:40;;;;;;;12.85;4.30;;;13.10;99.90;;;;;;5069903;28;20072;-73
2023/04/12 12:07:06;;;;;;;9.93;3.13;;;13.10;99.90;;;;;;5070458;28;20052;-73
2023/04/12 12:09:32;;;;;;;9.95;3.03;;;13.10;99.90;;;;;;5070490;28;20040;-73
2023/04/12 12:11:57;;;;;;;13.80;3.97;;;13.20;99.90;;;;;;5070537;28;20113;-73
2023/04/12 12:14:24;;;;;;;9.40;3.63;;;13.30;99.90;;;;;;5070395;28;20037;-73
2023/04/12 12:16:57;;;;;;;7.03;2.60;;;13.30;99.90;;;;;;5071527;28;20037;-74
2023/04/12 12:19:29;;;;;;;12.63;2.88;;;13.30;99.90;;;;;;5054111;28;20493;-74
2023/04/12 12:22:24;;;;;;;16.58;3.13;;;13.40;99.90;;;;;;5053944;28;20082;-73
2023/04/12 12:24:51;;;;;;;10.73;3.25;;;13.20;99.90;;;;;;5069557;28;20048;-74
2023/04/12 12:27:18;;;;;;;12.88;2.88;;;13.00;99.90;;;;;;5070343;28;20145;-73
2023/04/12 12:29:48;;;;;;;10.63;2.42;;;12.90;99.90;;;;;;5071642;28;20048;-73
2023/04/12 12:32:16;;;;;;;15.80;4.40;;;12.80;99.90;;;;;;5071726;28;20163;-74
2023/04/12 12:34:53;;;;;;;11.50;2.28;;;12.70;99.90;;;;;;5070440;28;20630;-72
2023/04/12 12:37:26;;;;;;;11.90;3.15;;;12.70;99.90;;;;;;5070167;28;20045;-73
2023/04/12 12:40:15;;;;;;;74.32;42.67;;;12.70;99.90;;;;;;5071482;28;20409;-72
2023/04/12 12:42:50;;;;;;;17.58;4.57;;;12.70;99.90;;;;;;5070548;28;20056;-72
2023/04/12 12:45:18;;;;;;;5.75;3.05;;;12.80;99.90;;;;;;5069819;28;20486;-72
2023/04/12 12:47:46;;;;;;;10.98;2.80;;;12.90;99.90;;;;;;5070367;28;20417;-73
2023/04/12 12:50:13;;;;;;;11.70;2.60;;;12.80;99.90;;;;;;5053337;28;20079;-73
2023/04/12 12:52:38;;;;;;;10.98;3.50;;;12.70;99.90;;;;;;5053744;28;20131;-74
2023/04/12 12:55:05;;;;;;;15.88;3.42;;;12.60;99.90;;;;;;5053286;28;20562;-72